Time;durP1;ratioP1;P1;durP2;ratioP2;P2;SDS_P1;SDS_P2;PMS_P1;PMS_P2;Temp;Humidity;BMP_temperature;BMP_pressure;BME280_temperature;BME280_humidity;BME280_pressure;Samples;Min_cycle;Max_cycle;Signal;HPM_P1;HPM_P2
2022/03/26 00:02:06;;;;;;;35.13;19.48;;;11.60;33.70;;;;;;5096459;28;20034;-68
2022/03/26 00:04:32;;;;;;;36.30;19.30;;;11.60;34.10;;;;;;5114298;28;20032;-72
2022/03/26 00:06:58;;;;;;;33.28;18.35;;;11.60;33.70;;;;;;5115024;28;20477;-68
2022/03/26 00:09:23;;;;;;;35.38;18.90;;;11.60;33.70;;;;;;5114656;28;20059;-68
2022/03/26 00:11:49;;;;;;;37.17;19.58;;;11.60;33.70;;;;;;5078908;28;20016;-69
2022/03/26 00:14:15;;;;;;;31.92;18.20;;;11.60;33.80;;;;;;5094171;28;20103;-68
2022/03/26 00:16:41;;;;;;;35.78;19.73;;;11.60;33.60;;;;;;5094154;28;20059;-68
2022/03/26 00:19:07;;;;;;;38.88;19.35;;;11.60;33.60;;;;;;5094302;28;20374;-68
2022/03/26 00:21:33;;;;;;;35.70;19.48;;;11.60;33.60;;;;;;5075676;28;20039;-68
2022/03/26 00:23:59;;;;;;;31.85;18.23;;;11.60;33.70;;;;;;5075968;28;20038;-69
2022/03/26 00:26:25;;;;;;;37.20;19.80;;;11.60;33.80;;;;;;5075575;28;20032;-69
2022/03/26 00:28:51;;;;;;;36.00;19.65;;;11.60;34.00;;;;;;5090135;28;20027;-68
2022/03/26 00:31:17;;;;;;;36.03;18.83;;;11.60;34.00;;;;;;5114063;28;20023;-67
2022/03/26 00:33:43;;;;;;;37.72;20.50;;;11.50;33.90;;;;;;5095380;28;20024;-68
2022/03/26 00:36:09;;;;;;;40.00;19.55;;;11.50;34.10;;;;;;5114196;28;20028;-68
2022/03/26 00:38:35;;;;;;;33.97;19.48;;;11.50;34.10;;;;;;5099870;28;20150;-68
2022/03/26 00:41:01;;;;;;;36.72;18.85;;;11.50;33.90;;;;;;5077013;28;20028;-70
2022/03/26 00:43:26;;;;;;;36.53;20.42;;;11.40;33.90;;;;;;5113750;28;20039;-67
2022/03/26 00:45:52;;;;;;;37.05;19.17;;;11.40;34.20;;;;;;5113545;28;20102;-68
2022/03/26 00:48:18;;;;;;;32.35;17.83;;;11.40;34.10;;;;;;5109622;28;20399;-68
2022/03/26 00:50:44;;;;;;;34.67;18.05;;;11.40;33.90;;;;;;5094055;28;20713;-66
2022/03/26 00:53:10;;;;;;;36.60;19.92;;;11.30;34.20;;;;;;5076760;28;20024;-66
2022/03/26 00:55:36;;;;;;;35.10;18.58;;;11.30;34.10;;;;;;5113421;28;20031;-66
2022/03/26 00:58:02;;;;;;;33.83;17.88;;;11.30;34.20;;;;;;5113034;28;20058;-68
2022/03/26 01:00:27;;;;;;;35.38;18.65;;;11.30;34.10;;;;;;5095390;28;20114;-70
2022/03/26 01:02:54;;;;;;;29.20;17.20;;;11.20;34.20;;;;;;5095552;28;20093;-68
2022/03/26 01:05:19;;;;;;;38.45;17.75;;;11.20;34.20;;;;;;5103226;28;20060;-69
2022/03/26 01:07:46;;;;;;;34.80;17.17;;;11.20;34.30;;;;;;5093430;28;20062;-68
2022/03/26 01:10:12;;;;;;;29.88;17.67;;;11.10;34.40;;;;;;5093705;28;20363;-68
2022/03/26 01:12:38;;;;;;;32.75;18.10;;;11.10;34.20;;;;;;5093605;28;20332;-65
2022/03/26 01:15:06;;;;;;;31.73;16.88;;;11.10;34.40;;;;;;5095414;28;20073;-68
2022/03/26 01:17:32;;;;;;;30.48;15.40;;;11.00;34.50;;;;;;5092730;28;20383;-68
2022/03/26 01:19:59;;;;;;;33.95;17.45;;;11.00;34.50;;;;;;5112117;28;20520;-70
2022/03/26 01:22:26;;;;;;;29.38;17.02;;;11.00;34.80;;;;;;5095329;28;20031;-68
2022/03/26 01:24:52;;;;;;;33.85;18.48;;;11.00;35.00;;;;;;5095350;28;20023;-69
2022/03/26 01:27:18;;;;;;;30.02;16.95;;;10.90;35.50;;;;;;5112821;28;20106;-68
2022/03/26 01:29:43;;;;;;;29.90;15.65;;;10.90;35.70;;;;;;5095246;28;20027;-68
2022/03/26 01:32:10;;;;;;;26.08;14.77;;;10.90;35.60;;;;;;5080887;28;20472;-71
2022/03/26 01:34:37;;;;;;;27.33;14.93;;;10.90;35.60;;;;;;5074958;28;20024;-68
2022/03/26 01:37:03;;;;;;;35.95;19.38;;;10.80;35.80;;;;;;5074951;28;20027;-69
2022/03/26 01:39:30;;;;;;;33.03;18.48;;;10.80;37.00;;;;;;5074785;28;20055;-69
2022/03/26 01:42:07;;;;;;;30.55;17.33;;;10.80;36.80;;;;;;5092966;28;20455;-68
2022/03/26 01:44:33;;;;;;;36.83;19.50;;;10.70;36.80;;;;;;5093299;28;20059;-72
2022/03/26 01:47:03;;;;;;;35.85;19.63;;;10.70;37.40;;;;;;5093276;28;20035;-69
2022/03/26 01:49:29;;;;;;;36.53;19.95;;;10.70;38.10;;;;;;5093128;28;20056;-68
2022/03/26 01:51:56;;;;;;;31.80;17.17;;;10.70;37.80;;;;;;5094816;28;20024;-68
2022/03/26 01:54:22;;;;;;;30.77;17.02;;;10.60;37.40;;;;;;5112791;28;20470;-68
2022/03/26 01:56:49;;;;;;;33.38;17.52;;;10.60;37.40;;;;;;5095234;28;20379;-68
2022/03/26 01:59:15;;;;;;;36.00;18.38;;;10.60;37.70;;;;;;5084112;28;20040;-68
2022/03/26 02:01:42;;;;;;;36.90;20.50;;;10.60;37.90;;;;;;5102479;27;20045;-69
2022/03/26 02:04:08;;;;;;;30.27;17.27;;;10.50;37.80;;;;;;5107396;27;20061;-68
2022/03/26 02:06:40;;;;;;;40.45;21.85;;;10.50;37.70;;;;;;5105520;28;20020;-69
2022/03/26 02:09:11;;;;;;;35.50;19.17;;;10.40;38.00;;;;;;5104120;28;20028;-69
2022/03/26 02:11:39;;;;;;;34.60;19.55;;;10.40;37.90;;;;;;5095947;28;20020;-69
2022/03/26 02:14:09;;;;;;;36.03;19.08;;;10.40;38.10;;;;;;5110408;27;20418;-67
2022/03/26 02:16:37;;;;;;;33.33;19.00;;;10.30;38.00;;;;;;5118526;27;20480;-70
2022/03/26 02:19:08;;;;;;;34.38;18.75;;;10.30;38.60;;;;;;5119338;27;20035;-67
2022/03/26 02:21:38;;;;;;;44.72;20.40;;;10.30;38.60;;;;;;5101395;27;20020;-67
2022/03/26 02:24:06;;;;;;;34.58;17.88;;;10.20;39.20;;;;;;5104963;27;20031;-69
2022/03/26 02:26:35;;;;;;;33.40;19.38;;;10.20;38.90;;;;;;5117489;27;20084;-68
2022/03/26 02:29:09;;;;;;;32.05;17.17;;;10.20;38.90;;;;;;5136667;27;20031;-68
2022/03/26 02:31:37;;;;;;;29.20;15.63;;;10.10;38.60;;;;;;5136661;27;20027;-68
2022/03/26 02:34:04;;;;;;;37.92;20.40;;;10.10;38.40;;;;;;5097674;28;20031;-68
2022/03/26 02:36:30;;;;;;;41.30;18.50;;;10.00;38.70;;;;;;5106746;27;20375;-69
2022/03/26 02:38:56;;;;;;;33.42;18.30;;;10.00;38.40;;;;;;5116349;27;20114;-68
2022/03/26 02:41:22;;;;;;;32.42;17.20;;;10.00;38.30;;;;;;5115742;28;20106;-67
2022/03/26 02:43:47;;;;;;;37.28;19.95;;;9.90;38.40;;;;;;5116004;28;20024;-67
2022/03/26 02:46:13;;;;;;;36.10;18.42;;;9.90;38.80;;;;;;5115935;28;20023;-67
2022/03/26 02:48:39;;;;;;;31.17;17.40;;;9.90;38.80;;;;;;5097541;28;20471;-68
2022/03/26 02:51:09;;;;;;;37.55;19.08;;;9.80;38.80;;;;;;5116579;27;20659;-69
2022/03/26 02:53:34;;;;;;;34.53;19.70;;;9.80;39.00;;;;;;5117885;27;20427;-68
2022/03/26 02:56:00;;;;;;;40.97;20.17;;;9.80;38.90;;;;;;5118928;27;20057;-68
2022/03/26 02:58:29;;;;;;;36.50;18.33;;;9.70;39.40;;;;;;5115433;28;20410;-68
2022/03/26 03:00:55;;;;;;;41.58;21.40;;;9.70;39.20;;;;;;5092002;28;20036;-68
2022/03/26 03:03:20;;;;;;;34.75;20.50;;;9.70;39.90;;;;;;5094872;28;20051;-68
2022/03/26 03:05:46;;;;;;;34.10;19.05;;;9.60;39.80;;;;;;5076848;28;20059;-67
2022/03/26 03:08:14;;;;;;;30.17;17.52;;;9.60;39.60;;;;;;5106205;27;20172;-68
2022/03/26 03:10:43;;;;;;;37.38;19.55;;;9.60;40.00;;;;;;5113501;28;20028;-68
2022/03/26 03:13:10;;;;;;;34.75;18.70;;;9.60;39.80;;;;;;5114277;28;20023;-68
2022/03/26 03:15:38;;;;;;;39.88;19.63;;;9.50;39.70;;;;;;5103997;28;20031;-68
2022/03/26 03:18:07;;;;;;;34.42;19.35;;;9.50;40.00;;;;;;5076754;28;20028;-68
2022/03/26 03:20:36;;;;;;;39.33;21.75;;;9.40;40.20;;;;;;5076518;28;20189;-69
2022/03/26 03:23:05;;;;;;;39.70;20.90;;;9.40;40.40;;;;;;5076723;28;20024;-69
2022/03/26 03:25:45;;;;;;;40.38;19.95;;;9.40;40.40;;;;;;5088795;28;20032;-68
2022/03/26 03:28:14;;;;;;;36.97;20.42;;;9.40;40.40;;;;;;5093999;27;20118;-69
2022/03/26 03:30:45;;;;;;;32.58;18.25;;;9.30;40.40;;;;;;5094566;28;20100;-70
2022/03/26 03:33:11;;;;;;;39.83;21.90;;;9.30;40.30;;;;;;5094546;28;20070;-69
2022/03/26 03:35:37;;;;;;;33.75;18.80;;;9.30;40.50;;;;;;5094506;28;20109;-68
2022/03/26 03:38:05;;;;;;;36.50;20.45;;;9.20;40.30;;;;;;5076308;28;20028;-68
2022/03/26 03:40:31;;;;;;;41.30;21.27;;;9.20;40.40;;;;;;5076370;28;20032;-68
2022/03/26 03:42:57;;;;;;;36.35;19.92;;;9.20;40.40;;;;;;5076347;28;20356;-68
2022/03/26 03:45:23;;;;;;;38.03;19.73;;;9.10;40.60;;;;;;5076332;28;20479;-69
2022/03/26 03:47:49;;;;;;;39.42;20.80;;;9.10;40.60;;;;;;5094006;28;20036;-68
2022/03/26 03:50:15;;;;;;;33.88;17.73;;;9.10;40.60;;;;;;5087809;28;20024;-68
2022/03/26 03:52:44;;;;;;;39.35;19.63;;;9.00;40.40;;;;;;5096418;28;20078;-68
2022/03/26 03:55:10;;;;;;;41.35;19.98;;;9.00;40.70;;;;;;5112368;28;20055;-71
2022/03/26 03:57:43;;;;;;;38.33;19.80;;;9.00;40.80;;;;;;5091644;28;20101;-67
2022/03/26 04:00:14;;;;;;;35.63;19.98;;;8.90;40.90;;;;;;5088442;28;20043;-67
2022/03/26 04:02:42;;;;;;;46.72;22.75;;;8.90;40.80;;;;;;5086822;28;20102;-68
2022/03/26 04:05:13;;;;;;;41.35;21.33;;;8.90;41.40;;;;;;5075796;28;20459;-68
2022/03/26 04:07:40;;;;;;;39.80;20.67;;;8.80;41.40;;;;;;5076119;28;20407;-67
2022/03/26 04:10:07;;;;;;;36.92;19.17;;;8.80;41.00;;;;;;5088720;28;20471;-68
2022/03/26 04:12:38;;;;;;;40.05;19.48;;;8.80;41.10;;;;;;5095872;28;20107;-71
2022/03/26 04:15:06;;;;;;;37.58;19.92;;;8.70;41.20;;;;;;5095389;28;20062;-69
2022/03/26 04:17:35;;;;;;;38.13;19.95;;;8.70;41.10;;;;;;5095062;28;20070;-68
2022/03/26 04:20:09;;;;;;;38.58;19.58;;;8.70;41.30;;;;;;5093987;28;20467;-68
2022/03/26 04:22:39;;;;;;;33.75;19.20;;;8.60;41.30;;;;;;5110448;28;20031;-67
2022/03/26 04:25:06;;;;;;;35.92;18.63;;;8.60;41.30;;;;;;5104421;28;20028;-68
2022/03/26 04:27:38;;;;;;;33.65;17.60;;;8.60;41.20;;;;;;5114017;28;20024;-68
2022/03/26 04:30:04;;;;;;;34.15;17.98;;;8.60;41.10;;;;;;5095998;28;20481;-67
2022/03/26 04:32:32;;;;;;;35.85;18.13;;;8.60;41.10;;;;;;5095867;28;20074;-68
2022/03/26 04:35:01;;;;;;;37.85;20.13;;;8.60;41.10;;;;;;5095880;28;20164;-69
2022/03/26 04:37:29;;;;;;;36.88;19.25;;;8.60;41.20;;;;;;5081204;28;20028;-68
2022/03/26 04:39:59;;;;;;;34.20;18.52;;;8.50;41.20;;;;;;5093578;28;20032;-68
2022/03/26 04:42:28;;;;;;;39.28;21.95;;;8.50;41.30;;;;;;5075970;28;20020;-68
2022/03/26 04:44:54;;;;;;;41.55;18.42;;;8.50;41.50;;;;;;5093304;28;20028;-67
2022/03/26 04:47:22;;;;;;;31.48;18.77;;;8.50;41.40;;;;;;5075629;28;20028;-67
2022/03/26 04:49:52;;;;;;;35.45;19.00;;;8.50;41.90;;;;;;5094471;28;20032;-67
2022/03/26 04:52:24;;;;;;;37.95;18.73;;;8.50;42.00;;;;;;5113949;28;20070;-67
2022/03/26 04:54:52;;;;;;;40.90;20.60;;;8.50;42.60;;;;;;5113713;28;20016;-67
2022/03/26 04:57:22;;;;;;;33.85;17.75;;;8.50;42.20;;;;;;5095157;28;20047;-67
2022/03/26 04:59:50;;;;;;;31.67;16.90;;;8.50;42.20;;;;;;5113555;28;20533;-68
2022/03/26 05:02:18;;;;;;;35.72;19.67;;;8.40;41.90;;;;;;5084831;28;20028;-68
2022/03/26 05:04:44;;;;;;;34.33;19.40;;;8.40;43.10;;;;;;5073542;28;20024;-70
2022/03/26 05:10:00;;;;;;;35.45;19.05;;;8.40;43.10;;;;;;5073059;28;20039;-67
2022/03/26 05:12:26;;;;;;;39.63;19.45;;;8.40;42.80;;;;;;5073305;28;20029;-67
2022/03/26 05:14:52;;;;;;;39.13;20.80;;;8.40;43.00;;;;;;5073188;28;20112;-68
2022/03/26 05:17:21;;;;;;;38.05;19.98;;;8.40;43.00;;;;;;5073638;28;20039;-68
2022/03/26 05:19:49;;;;;;;39.97;20.50;;;8.40;43.30;;;;;;5071921;28;20090;-67
2022/03/26 05:22:15;;;;;;;38.85;19.08;;;8.40;43.30;;;;;;5074362;28;20027;-69
2022/03/26 05:24:43;;;;;;;33.30;18.52;;;8.40;43.20;;;;;;5091816;28;20466;-68
2022/03/26 05:27:09;;;;;;;34.70;18.30;;;8.40;43.10;;;;;;5093356;28;20024;-67
2022/03/26 05:29:35;;;;;;;34.60;18.67;;;8.50;43.10;;;;;;5068371;28;20025;-67
2022/03/26 05:32:04;;;;;;;30.65;17.02;;;8.40;43.20;;;;;;5075224;28;20360;-68
2022/03/26 05:34:30;;;;;;;30.65;17.30;;;8.40;43.30;;;;;;5077119;28;20025;-68
2022/03/26 05:36:55;;;;;;;33.90;17.60;;;8.50;44.00;;;;;;5094259;28;20430;-68
2022/03/26 05:39:23;;;;;;;34.58;19.13;;;8.50;43.30;;;;;;5096821;28;20036;-67
2022/03/26 05:41:55;;;;;;;35.15;19.00;;;8.60;43.70;;;;;;5079016;28;20062;-68
2022/03/26 05:44:20;;;;;;;36.10;18.02;;;8.60;43.60;;;;;;5080933;28;20056;-68
2022/03/26 05:46:48;;;;;;;36.95;18.27;;;8.60;43.60;;;;;;5064498;28;20020;-68
2022/03/26 05:49:17;;;;;;;34.30;17.67;;;8.70;43.80;;;;;;5077105;28;20039;-68
2022/03/26 05:51:46;;;;;;;36.10;18.38;;;8.70;43.70;;;;;;5075338;28;20025;-68
2022/03/26 05:54:12;;;;;;;37.10;18.95;;;8.80;44.00;;;;;;5061412;28;20036;-69
2022/03/26 05:56:41;;;;;;;37.63;19.17;;;8.80;44.10;;;;;;5091710;28;20086;-68
2022/03/26 05:59:23;;;;;;;40.88;20.17;;;8.90;44.10;;;;;;5076532;28;20408;-67
2022/03/26 06:01:55;;;;;;;33.92;18.55;;;9.00;44.30;;;;;;5058600;28;20115;-68
2022/03/26 06:04:29;;;;;;;30.88;18.00;;;9.00;44.90;;;;;;5086981;28;20027;-67
2022/03/26 06:06:56;;;;;;;36.63;18.15;;;9.10;44.30;;;;;;5117571;28;20032;-68
2022/03/26 06:09:22;;;;;;;32.70;18.55;;;9.10;44.30;;;;;;5117164;28;20035;-67
2022/03/26 06:11:51;;;;;;;31.55;18.58;;;9.20;44.40;;;;;;5080441;28;20483;-67
2022/03/26 06:14:20;;;;;;;41.63;21.75;;;9.20;44.40;;;;;;5084054;28;20035;-67
2022/03/26 06:16:48;;;;;;;32.85;19.17;;;9.30;44.60;;;;;;5117222;28;20019;-67
2022/03/26 06:19:17;;;;;;;38.92;19.80;;;9.40;44.30;;;;;;5098979;28;20082;-68
2022/03/26 06:21:43;;;;;;;48.70;21.90;;;9.50;44.20;;;;;;5098924;28;20051;-68
2022/03/26 06:24:15;;;;;;;53.00;24.85;;;9.50;44.50;;;;;;5090692;28;20472;-68
2022/03/26 06:26:44;;;;;;;40.60;21.52;;;9.60;44.40;;;;;;5109785;28;20032;-68
2022/03/26 06:29:12;;;;;;;40.30;22.80;;;9.70;44.20;;;;;;5112253;28;20491;-68
2022/03/26 06:31:38;;;;;;;39.58;22.00;;;9.70;44.20;;;;;;5116627;28;20451;-68
2022/03/26 06:34:04;;;;;;;38.70;21.35;;;9.80;44.20;;;;;;5116568;28;20102;-69
2022/03/26 06:36:30;;;;;;;35.10;20.05;;;9.80;44.00;;;;;;5098247;28;20439;-68
2022/03/26 06:38:56;;;;;;;37.35;20.27;;;9.90;44.00;;;;;;5079814;28;20097;-68
2022/03/26 06:41:23;;;;;;;38.83;19.50;;;10.00;44.00;;;;;;5077904;28;20032;-67
2022/03/26 06:43:49;;;;;;;39.90;21.05;;;10.10;44.10;;;;;;5077386;28;20034;-68
2022/03/26 06:46:20;;;;;;;41.13;21.45;;;10.10;44.00;;;;;;5109497;28;20107;-71
2022/03/26 06:48:48;;;;;;;41.17;21.40;;;10.20;43.80;;;;;;5098188;28;20085;-68
2022/03/26 06:51:14;;;;;;;42.35;22.27;;;10.30;43.90;;;;;;5097614;28;20027;-67
2022/03/26 06:53:40;;;;;;;45.70;22.15;;;10.40;43.90;;;;;;5116067;28;20031;-70
2022/03/26 06:56:07;;;;;;;36.40;20.67;;;10.40;43.90;;;;;;5077857;28;20088;-68
2022/03/26 06:58:36;;;;;;;41.10;22.83;;;10.50;43.80;;;;;;5095264;28;20070;-68
2022/03/26 07:01:09;;;;;;;60.33;21.08;;;10.60;44.00;;;;;;5077428;28;20032;-68
2022/03/26 07:03:40;;;;;;;39.42;19.35;;;10.70;43.90;;;;;;5077467;28;20174;-69
2022/03/26 07:06:06;;;;;;;36.13;20.08;;;10.80;43.70;;;;;;5095596;28;20030;-68
2022/03/26 07:15:31;;;;;;;36.60;21.25;;;11.10;43.30;;;;;;5012435;28;20095;-68
2022/03/26 07:17:58;;;;;;;37.83;22.30;;;11.20;43.30;;;;;;5003754;28;20030;-68
2022/03/26 07:31:36;;;;;;;46.15;20.65;;;11.50;42.40;;;;;;4973659;28;20039;-70
2022/03/26 07:34:57;;;;;;;37.90;21.92;;;11.60;42.10;;;;;;4973264;28;20042;-68
2022/03/26 07:38:23;;;;;;;39.60;22.20;;;11.70;41.70;;;;;;4900081;29;20496;-67
2022/03/26 07:41:44;;;;;;;42.22;23.50;;;11.80;41.70;;;;;;4915677;29;20511;-67
2022/03/26 07:44:50;;;;;;;41.22;22.15;;;11.90;41.60;;;;;;4915489;29;20484;-68
2022/03/26 07:47:16;;;;;;;41.53;24.30;;;12.10;41.20;;;;;;4897324;29;20044;-69
2022/03/26 07:56:32;;;;;;;47.60;27.13;;;12.30;40.00;;;;;;4925429;29;20411;-69
2022/03/26 07:59:59;;;;;;;55.47;29.08;;;12.40;39.80;;;;;;4918506;29;20055;-69
2022/03/26 08:06:43;;;;;;;59.25;31.70;;;12.70;39.50;;;;;;4896835;29;20036;-69
2022/03/26 08:10:07;;;;;;;64.07;32.90;;;12.80;39.40;;;;;;4876274;29;20057;-69
2022/03/26 08:13:28;;;;;;;57.30;30.40;;;12.90;39.30;;;;;;4868837;29;20052;-68
2022/03/26 08:16:52;;;;;;;61.97;29.95;;;13.00;39.00;;;;;;4915593;29;20148;-69
2022/03/26 08:20:12;;;;;;;63.00;32.15;;;13.10;39.10;;;;;;4859246;29;20522;-68
2022/03/26 08:26:42;;;;;;;53.88;28.50;;;13.30;39.20;;;;;;4849102;29;20102;-68
2022/03/26 08:30:03;;;;;;;60.90;30.67;;;13.40;39.20;;;;;;4859139;29;20034;-71
2022/03/26 08:33:24;;;;;;;58.53;29.67;;;13.60;38.90;;;;;;4860109;29;20041;-68
2022/03/26 08:40:12;;;;;;;51.88;27.58;;;13.80;38.90;;;;;;4871597;29;20127;-69
2022/03/26 08:42:41;;;;;;;59.03;31.48;;;13.90;38.60;;;;;;4871160;29;20474;-69
2022/03/26 08:49:16;;;;;;;59.75;28.85;;;14.20;37.90;;;;;;4858974;29;20072;-69
2022/03/26 08:52:40;;;;;;;65.57;29.58;;;14.30;37.90;;;;;;4863427;29;20045;-69
2022/03/26 08:56:04;;;;;;;58.33;28.13;;;14.40;37.60;;;;;;4936033;28;20043;-69
2022/03/26 08:59:26;;;;;;;63.63;26.45;;;14.50;37.50;;;;;;4933431;29;20056;-69
2022/03/26 09:02:49;;;;;;;57.80;28.10;;;14.70;37.30;;;;;;4877564;29;20410;-68
2022/03/26 09:05:32;;;;;;;49.65;26.35;;;14.80;36.90;;;;;;4863797;29;20037;-69
2022/03/26 09:11:59;;;;;;;;;;;15.00;36.80;;;;;;4877704;29;20101;-70
2022/03/26 09:14:25;;;;;;;53.58;25.98;;;15.10;37.10;;;;;;4893013;29;19917;-68
2022/03/26 09:17:31;;;;;;;58.03;28.95;;;15.20;35.60;;;;;;4877283;29;20037;-69
2022/03/26 09:20:34;;;;;;;51.78;27.60;;;15.30;35.40;;;;;;4860457;29;20045;-70
2022/03/26 09:23:29;;;;;;;47.17;24.55;;;15.40;35.10;;;;;;4879433;29;20128;-68
2022/03/26 09:25:59;;;;;;;48.90;24.38;;;15.60;35.50;;;;;;4866180;29;20045;-69
2022/03/26 09:28:26;;;;;;;52.75;26.42;;;15.60;35.20;;;;;;4857744;29;20048;-70
2022/03/26 09:30:51;;;;;;;53.63;26.13;;;15.70;34.50;;;;;;4858445;29;20070;-69
2022/03/26 09:33:18;;;;;;;50.10;25.10;;;15.80;34.30;;;;;;4859638;29;20053;-70
2022/03/26 09:35:46;;;;;;;60.65;26.27;;;15.90;33.90;;;;;;4916438;29;20120;-71
2022/03/26 09:38:12;;;;;;;56.17;27.85;;;16.00;34.00;;;;;;4940383;28;20038;-69
2022/03/26 09:40:43;;;;;;;50.08;25.98;;;16.10;32.90;;;;;;4990861;28;20035;-68
2022/03/26 09:43:14;;;;;;;40.15;22.48;;;16.10;32.70;;;;;;4991047;28;20117;-69
2022/03/26 09:45:42;;;;;;;50.65;24.80;;;16.20;32.90;;;;;;4991443;28;20060;-69
2022/03/26 09:48:10;;;;;;;47.92;23.20;;;16.30;31.90;;;;;;4990756;28;20031;-69
2022/03/26 09:50:42;;;;;;;50.55;25.20;;;16.40;32.10;;;;;;4991444;28;20050;-69
2022/03/26 09:53:12;;;;;;;44.13;23.92;;;16.50;31.60;;;;;;4983790;28;20026;-69
2022/03/26 09:55:43;;;;;;;44.42;24.95;;;16.50;31.40;;;;;;4994183;28;20080;-68
2022/03/26 09:58:12;;;;;;;41.95;22.48;;;16.60;30.90;;;;;;5026229;28;20064;-69
2022/03/26 10:00:38;;;;;;;48.45;25.83;;;16.70;31.30;;;;;;5000746;28;20034;-68
2022/03/26 10:03:07;;;;;;;53.83;26.08;;;16.80;31.00;;;;;;5058809;28;20047;-69
2022/03/26 10:05:37;;;;;;;40.88;22.65;;;16.90;30.50;;;;;;5091618;28;20098;-69
2022/03/26 10:08:39;;;;;;;46.45;24.00;;;17.00;30.90;;;;;;5070418;28;20028;-69
2022/03/26 10:11:09;;;;;;;48.53;23.63;;;17.00;30.90;;;;;;5093001;28;20494;-69
2022/03/26 10:13:38;;;;;;;44.25;24.42;;;17.20;30.30;;;;;;5072639;28;20021;-69
2022/03/26 10:16:15;;;;;;;41.72;24.42;;;17.20;30.20;;;;;;5108833;28;20031;-69
2022/03/26 10:19:21;;;;;;;46.20;23.63;;;17.30;30.10;;;;;;5086311;28;20027;-68
2022/03/26 10:22:29;;;;;;;42.22;23.67;;;17.40;29.80;;;;;;5071460;28;20067;-68
2022/03/26 10:25:16;;;;;;;43.95;23.00;;;17.50;30.10;;;;;;5078476;28;20395;-68
2022/03/26 10:27:52;;;;;;;44.35;21.90;;;17.50;29.70;;;;;;5096712;28;20142;-69
2022/03/26 10:33:27;;;;;;;46.55;25.30;;;17.70;29.20;;;;;;5105899;28;20671;-70
2022/03/26 10:35:57;;;;;;;44.95;24.40;;;17.70;29.10;;;;;;5076000;28;20058;-69
2022/03/26 10:38:41;;;;;;;44.13;23.63;;;17.80;29.00;;;;;;5091861;28;20028;-68
2022/03/26 10:41:08;;;;;;;39.65;23.05;;;17.80;29.00;;;;;;5078286;28;20059;-68
2022/03/26 10:43:39;;;;;;;43.30;22.55;;;17.90;28.80;;;;;;5078782;28;20422;-68
2022/03/26 10:46:05;;;;;;;41.80;23.13;;;17.90;28.90;;;;;;5080690;28;20023;-69
2022/03/26 10:48:35;;;;;;;46.60;22.45;;;17.90;28.70;;;;;;5095650;28;20082;-69
2022/03/26 10:51:15;;;;;;;41.97;21.73;;;18.00;28.60;;;;;;5096144;28;20020;-69
2022/03/26 10:53:49;;;;;;;44.75;23.73;;;18.00;28.60;;;;;;5077402;28;20032;-69
2022/03/26 10:56:15;;;;;;;36.05;21.10;;;18.10;28.40;;;;;;5077895;28;20158;-68
2022/03/26 10:58:45;;;;;;;48.13;24.45;;;18.20;28.80;;;;;;5091194;28;20179;-69
2022/03/26 11:01:14;;;;;;;52.78;23.45;;;18.20;28.30;;;;;;5076096;28;20447;-69
2022/03/26 11:03:46;;;;;;;46.10;25.15;;;18.30;28.20;;;;;;5092300;28;20028;-71
2022/03/26 11:06:14;;;;;;;49.88;22.98;;;18.30;27.80;;;;;;5082769;28;20042;-70
2022/03/26 11:08:44;;;;;;;48.45;25.45;;;18.40;27.80;;;;;;5088588;28;20051;-69
2022/03/26 11:11:14;;;;;;;45.33;25.13;;;18.40;27.70;;;;;;5084644;28;20374;-69
2022/03/26 11:13:50;;;;;;;49.00;23.65;;;18.50;27.40;;;;;;5093960;28;20020;-70
2022/03/26 11:16:54;;;;;;;41.13;23.48;;;18.50;27.40;;;;;;5077299;28;20031;-69
2022/03/26 11:19:52;;;;;;;41.25;22.05;;;18.60;27.30;;;;;;5005479;28;20050;-69
2022/03/26 11:22:57;;;;;;;39.15;21.98;;;18.70;27.50;;;;;;5076484;28;20040;-69
2022/03/26 11:25:35;;;;;;;39.85;21.88;;;18.70;27.40;;;;;;5087665;28;20364;-69
2022/03/26 11:28:22;;;;;;;37.78;21.65;;;18.80;27.30;;;;;;5075241;28;20502;-69
2022/03/26 11:31:46;;;;;;;42.53;24.08;;;18.80;27.40;;;;;;5093507;28;20426;-70
2022/03/26 11:34:11;;;;;;;36.40;21.75;;;18.90;26.90;;;;;;5036869;28;20041;-69
2022/03/26 11:37:24;;;;;;;43.28;23.73;;;19.00;27.30;;;;;;5051734;28;20111;-69
2022/03/26 11:40:48;;;;;;;42.85;22.95;;;19.00;27.20;;;;;;5048977;28;20041;-69
2022/03/26 11:52:31;;;;;;;41.20;24.10;;;19.30;26.80;;;;;;4954036;29;20049;-68
2022/03/26 11:55:22;;;;;;;;;;;19.30;26.50;;;;;;4952630;28;20098;-68
2022/03/26 11:58:14;;;;;;;37.67;23.00;;;19.50;27.50;;;;;;4970578;28;19918;-70
2022/03/26 12:01:04;;;;;;;43.28;24.48;;;19.50;26.40;;;;;;4963718;28;20082;-69
2022/03/26 12:03:41;;;;;;;45.60;25.52;;;19.60;25.90;;;;;;4969327;28;20031;-68
2022/03/26 12:08:57;;;;;;;34.90;21.63;;;19.70;25.80;;;;;;4947081;29;20038;-68
2022/03/26 12:11:27;;;;;;;41.00;25.05;;;19.70;25.90;;;;;;4998742;28;20057;-68
2022/03/26 12:14:04;;;;;;;47.53;25.23;;;19.80;25.80;;;;;;5028234;28;20069;-68
2022/03/26 12:16:49;;;;;;;43.92;25.58;;;19.80;25.80;;;;;;5031933;28;20030;-68
2022/03/26 12:19:46;;;;;;;40.78;23.30;;;19.80;25.70;;;;;;5056442;28;20043;-69
2022/03/26 12:22:28;;;;;;;39.80;22.85;;;19.90;25.50;;;;;;5114742;28;20024;-69
2022/03/26 12:25:01;;;;;;;37.28;20.90;;;19.90;24.90;;;;;;5096170;27;20379;-64
2022/03/26 12:27:29;;;;;;;41.20;22.55;;;20.00;25.80;;;;;;5105808;28;20054;-64
2022/03/26 12:29:59;;;;;;;42.60;25.77;;;20.10;25.80;;;;;;5075648;28;20060;-65
2022/03/26 12:32:35;;;;;;;38.03;22.25;;;20.10;24.70;;;;;;5075991;28;20059;-64
2022/03/26 12:35:06;;;;;;;38.78;21.50;;;20.20;25.70;;;;;;5099062;27;20459;-65
2022/03/26 12:37:33;;;;;;;44.83;23.83;;;20.30;25.50;;;;;;5116525;27;20051;-66
2022/03/26 12:40:00;;;;;;;42.58;23.58;;;20.40;24.90;;;;;;5095756;28;20487;-65
2022/03/26 12:42:27;;;;;;;34.10;21.00;;;20.40;24.50;;;;;;5104026;28;20024;-65
2022/03/26 12:44:53;;;;;;;43.63;23.13;;;20.50;24.80;;;;;;5094917;28;20038;-64
2022/03/26 12:47:25;;;;;;;46.70;25.67;;;20.60;24.20;;;;;;5095474;28;20027;-65
2022/03/26 12:49:58;;;;;;;38.92;22.42;;;20.70;23.60;;;;;;5092981;28;20032;-64
2022/03/26 12:52:25;;;;;;;40.03;23.10;;;20.70;23.70;;;;;;5095618;28;20023;-64
2022/03/26 12:54:59;;;;;;;37.28;23.48;;;20.80;24.40;;;;;;5090164;28;20028;-63
2022/03/26 12:58:56;;;;;;;;;;;20.80;24.20;;;;;;5115289;28;20040;-64
2022/03/26 13:00:12;;;;;;;39.55;22.23;;;20.90;24.90;;;;;;5101374;28;19920;-65
2022/03/26 13:02:42;;;;;;;42.00;21.50;;;20.90;24.30;;;;;;5095262;28;20075;-64
2022/03/26 13:05:11;;;;;;;36.85;22.52;;;21.00;24.30;;;;;;5092989;28;20028;-65
2022/03/26 13:07:39;;;;;;;35.97;21.25;;;21.00;24.00;;;;;;5087880;28;20032;-65
2022/03/26 13:10:08;;;;;;;37.78;22.95;;;21.10;24.10;;;;;;5112175;28;20027;-66
2022/03/26 13:12:35;;;;;;;39.67;23.52;;;21.20;24.00;;;;;;5094582;28;20031;-65
2022/03/26 13:15:03;;;;;;;46.25;27.27;;;21.20;23.60;;;;;;5095210;28;20023;-64
2022/03/26 13:17:37;;;;;;;38.40;23.20;;;21.20;22.90;;;;;;5111055;28;20027;-64
2022/03/26 13:20:06;;;;;;;35.72;21.80;;;21.30;22.80;;;;;;5115496;28;20023;-65
2022/03/26 13:22:34;;;;;;;32.47;20.65;;;21.30;23.10;;;;;;5096765;28;20039;-66
2022/03/26 13:25:04;;;;;;;33.85;19.60;;;21.30;23.30;;;;;;5094680;28;20030;-65
2022/03/26 13:27:30;;;;;;;45.45;25.42;;;21.40;22.80;;;;;;5093319;28;20084;-65
2022/03/26 13:30:09;;;;;;;36.83;22.27;;;21.40;22.30;;;;;;5110237;28;20023;-65
2022/03/26 13:32:35;;;;;;;60.75;35.67;;;21.50;23.00;;;;;;5094592;28;20062;-66
2022/03/26 13:35:02;;;;;;;44.42;27.98;;;21.50;23.00;;;;;;5092980;28;20050;-65
2022/03/26 13:37:34;;;;;;;43.17;24.77;;;21.50;22.40;;;;;;5088476;28;20387;-65
2022/03/26 13:40:03;;;;;;;70.90;41.72;;;21.60;22.30;;;;;;5074975;28;20028;-65
2022/03/26 13:42:29;;;;;;;57.42;32.00;;;21.60;22.80;;;;;;5093889;28;20042;-65
2022/03/26 13:44:58;;;;;;;60.63;36.35;;;21.60;22.50;;;;;;5115729;28;20019;-64
2022/03/26 13:47:32;;;;;;;61.53;32.22;;;21.70;22.70;;;;;;5088008;28;20387;-65
2022/03/26 13:50:04;;;;;;;54.78;31.00;;;21.70;22.80;;;;;;5093057;28;20046;-64
2022/03/26 13:52:32;;;;;;;54.88;33.20;;;21.80;22.90;;;;;;5094961;28;20034;-65
2022/03/26 13:54:58;;;;;;;51.50;32.15;;;21.80;23.30;;;;;;5095303;28;20510;-66
2022/03/26 13:57:32;;;;;;;45.33;25.60;;;21.80;24.00;;;;;;5112794;27;20046;-64
2022/03/26 14:00:10;;;;;;;38.30;23.45;;;21.90;23.00;;;;;;5117480;27;20114;-64
2022/03/26 14:02:39;;;;;;;39.92;25.58;;;22.00;23.00;;;;;;5117083;28;20035;-66
2022/03/26 14:05:17;;;;;;;42.20;25.83;;;22.00;22.90;;;;;;5098874;28;20123;-66